sensor_id;sensor_type;location;lat;lon;timestamp;P1;durP1;ratioP1;P2;durP2;ratioP2
75716;SDS011;64333;50.138;14.332;2023-06-14T00:00:30;9.13;;;6.32;;
75716;SDS011;64333;50.138;14.332;2023-06-14T00:02:56;10.70;;;7.45;;
75716;SDS011;64333;50.138;14.332;2023-06-14T00:05:22;12.18;;;8.35;;
75716;SDS011;64333;50.138;14.332;2023-06-14T00:07:48;12.35;;;8.00;;
75716;SDS011;64333;50.138;14.332;2023-06-14T00:10:14;11.73;;;7.30;;
75716;SDS011;64333;50.138;14.332;2023-06-14T00:12:39;10.18;;;7.10;;
75716;SDS011;64333;50.138;14.332;2023-06-14T00:15:06;10.32;;;7.57;;
75716;SDS011;64333;50.138;14.332;2023-06-14T00:17:32;11.05;;;8.38;;
75716;SDS011;64333;50.138;14.332;2023-06-14T00:19:58;10.05;;;7.30;;
75716;SDS011;64333;50.138;14.332;2023-06-14T00:22:24;11.23;;;7.45;;
75716;SDS011;64333;50.138;14.332;2023-06-14T00:24:50;10.98;;;8.20;;
75716;SDS011;64333;50.138;14.332;2023-06-14T00:27:16;10.70;;;8.07;;
75716;SDS011;64333;50.138;14.332;2023-06-14T00:29:42;10.75;;;8.32;;
75716;SDS011;64333;50.138;14.332;2023-06-14T00:32:07;11.02;;;7.85;;
75716;SDS011;64333;50.138;14.332;2023-06-14T00:34:33;12.93;;;9.38;;
75716;SDS011;64333;50.138;14.332;2023-06-14T00:36:59;10.55;;;7.80;;
75716;SDS011;64333;50.138;14.332;2023-06-14T00:39:24;10.70;;;8.20;;
75716;SDS011;64333;50.138;14.332;2023-06-14T00:41:50;10.50;;;7.97;;
75716;SDS011;64333;50.138;14.332;2023-06-14T00:44:16;12.40;;;8.82;;
75716;SDS011;64333;50.138;14.332;2023-06-14T00:46:42;11.48;;;8.25;;
75716;SDS011;64333;50.138;14.332;2023-06-14T00:49:09;10.85;;;8.77;;
75716;SDS011;64333;50.138;14.332;2023-06-14T00:51:35;10.57;;;7.93;;
75716;SDS011;64333;50.138;14.332;2023-06-14T00:54:02;10.52;;;7.55;;
75716;SDS011;64333;50.138;14.332;2023-06-14T00:56:28;10.45;;;7.57;;
75716;SDS011;64333;50.138;14.332;2023-06-14T00:58:53;10.10;;;8.13;;
75716;SDS011;64333;50.138;14.332;2023-06-14T01:01:20;11.02;;;8.25;;
75716;SDS011;64333;50.138;14.332;2023-06-14T01:03:45;11.80;;;8.57;;
75716;SDS011;64333;50.138;14.332;2023-06-14T01:09:09;13.05;;;8.20;;
75716;SDS011;64333;50.138;14.332;2023-06-14T01:16:50;11.45;;;8.38;;
75716;SDS011;64333;50.138;14.332;2023-06-14T01:19:18;10.80;;;7.50;;
75716;SDS011;64333;50.138;14.332;2023-06-14T01:21:47;9.23;;;7.15;;
75716;SDS011;64333;50.138;14.332;2023-06-14T01:24:16;12.00;;;8.85;;
75716;SDS011;64333;50.138;14.332;2023-06-14T01:26:41;12.23;;;7.85;;
75716;SDS011;64333;50.138;14.332;2023-06-14T01:29:10;13.07;;;9.63;;
75716;SDS011;64333;50.138;14.332;2023-06-14T01:31:36;14.02;;;9.82;;
75716;SDS011;64333;50.138;14.332;2023-06-14T01:34:06;15.73;;;10.77;;
75716;SDS011;64333;50.138;14.332;2023-06-14T01:36:33;14.18;;;10.77;;
75716;SDS011;64333;50.138;14.332;2023-06-14T01:39:01;16.05;;;11.07;;
75716;SDS011;64333;50.138;14.332;2023-06-14T01:41:27;14.82;;;10.25;;
75716;SDS011;64333;50.138;14.332;2023-06-14T01:43:54;15.13;;;10.38;;
75716;SDS011;64333;50.138;14.332;2023-06-14T01:46:21;16.50;;;11.20;;
75716;SDS011;64333;50.138;14.332;2023-06-14T01:48:48;16.05;;;10.82;;
75716;SDS011;64333;50.138;14.332;2023-06-14T01:51:14;19.38;;;13.75;;
75716;SDS011;64333;50.138;14.332;2023-06-14T01:53:39;14.80;;;10.90;;
75716;SDS011;64333;50.138;14.332;2023-06-14T01:56:05;13.95;;;10.25;;
75716;SDS011;64333;50.138;14.332;2023-06-14T01:58:31;15.43;;;11.05;;
75716;SDS011;64333;50.138;14.332;2023-06-14T02:00:57;17.42;;;11.40;;
75716;SDS011;64333;50.138;14.332;2023-06-14T02:03:25;18.25;;;12.88;;
75716;SDS011;64333;50.138;14.332;2023-06-14T02:05:51;19.83;;;12.90;;
75716;SDS011;64333;50.138;14.332;2023-06-14T02:08:16;19.75;;;13.38;;
75716;SDS011;64333;50.138;14.332;2023-06-14T02:10:42;18.08;;;13.15;;
75716;SDS011;64333;50.138;14.332;2023-06-14T02:13:07;19.33;;;13.13;;
75716;SDS011;64333;50.138;14.332;2023-06-14T02:15:33;18.65;;;12.57;;
75716;SDS011;64333;50.138;14.332;2023-06-14T02:18:04;19.27;;;12.65;;
75716;SDS011;64333;50.138;14.332;2023-06-14T02:20:30;16.75;;;11.98;;
75716;SDS011;64333;50.138;14.332;2023-06-14T02:22:56;16.38;;;11.23;;
75716;SDS011;64333;50.138;14.332;2023-06-14T02:25:22;17.20;;;11.88;;
75716;SDS011;64333;50.138;14.332;2023-06-14T02:27:47;17.38;;;11.75;;
75716;SDS011;64333;50.138;14.332;2023-06-14T02:30:12;15.48;;;11.13;;
75716;SDS011;64333;50.138;14.332;2023-06-14T02:32:38;15.13;;;11.32;;
75716;SDS011;64333;50.138;14.332;2023-06-14T02:35:05;23.60;;;13.05;;
75716;SDS011;64333;50.138;14.332;2023-06-14T02:37:31;17.90;;;11.80;;
75716;SDS011;64333;50.138;14.332;2023-06-14T02:39:57;17.10;;;11.85;;
75716;SDS011;64333;50.138;14.332;2023-06-14T02:42:23;14.70;;;11.50;;
75716;SDS011;64333;50.138;14.332;2023-06-14T02:44:49;16.38;;;11.05;;
75716;SDS011;64333;50.138;14.332;2023-06-14T02:47:16;19.25;;;12.90;;
75716;SDS011;64333;50.138;14.332;2023-06-14T02:49:44;19.10;;;12.05;;
75716;SDS011;64333;50.138;14.332;2023-06-14T02:52:13;20.33;;;13.10;;
75716;SDS011;64333;50.138;14.332;2023-06-14T02:54:38;23.23;;;13.85;;
75716;SDS011;64333;50.138;14.332;2023-06-14T02:57:05;17.88;;;11.90;;
75716;SDS011;64333;50.138;14.332;2023-06-14T02:59:32;20.27;;;12.43;;
75716;SDS011;64333;50.138;14.332;2023-06-14T03:01:57;18.42;;;13.20;;
75716;SDS011;64333;50.138;14.332;2023-06-14T03:04:22;21.80;;;12.75;;
75716;SDS011;64333;50.138;14.332;2023-06-14T03:06:50;19.77;;;14.23;;
75716;SDS011;64333;50.138;14.332;2023-06-14T03:09:16;18.40;;;13.07;;
75716;SDS011;64333;50.138;14.332;2023-06-14T03:11:42;18.52;;;12.52;;
75716;SDS011;64333;50.138;14.332;2023-06-14T03:14:07;18.98;;;13.27;;
75716;SDS011;64333;50.138;14.332;2023-06-14T03:16:33;18.80;;;12.80;;
75716;SDS011;64333;50.138;14.332;2023-06-14T03:18:59;16.90;;;12.07;;
75716;SDS011;64333;50.138;14.332;2023-06-14T03:21:24;17.35;;;11.52;;
75716;SDS011;64333;50.138;14.332;2023-06-14T03:23:50;14.77;;;11.75;;
75716;SDS011;64333;50.138;14.332;2023-06-14T03:26:16;16.63;;;11.88;;
75716;SDS011;64333;50.138;14.332;2023-06-14T03:28:44;21.52;;;12.27;;
75716;SDS011;64333;50.138;14.332;2023-06-14T03:31:11;18.08;;;12.68;;
75716;SDS011;64333;50.138;14.332;2023-06-14T03:33:37;17.83;;;11.50;;
75716;SDS011;64333;50.138;14.332;2023-06-14T03:36:03;17.60;;;11.40;;
75716;SDS011;64333;50.138;14.332;2023-06-14T03:38:30;15.48;;;11.23;;
75716;SDS011;64333;50.138;14.332;2023-06-14T03:40:55;15.15;;;11.07;;
75716;SDS011;64333;50.138;14.332;2023-06-14T03:43:20;14.25;;;10.52;;
75716;SDS011;64333;50.138;14.332;2023-06-14T03:45:46;14.52;;;11.10;;
75716;SDS011;64333;50.138;14.332;2023-06-14T03:48:11;14.63;;;11.48;;
75716;SDS011;64333;50.138;14.332;2023-06-14T03:50:37;14.18;;;10.48;;
75716;SDS011;64333;50.138;14.332;2023-06-14T03:53:03;15.30;;;10.88;;
75716;SDS011;64333;50.138;14.332;2023-06-14T03:55:29;14.00;;;10.70;;
75716;SDS011;64333;50.138;14.332;2023-06-14T03:57:56;16.45;;;12.15;;
75716;SDS011;64333;50.138;14.332;2023-06-14T04:00:22;14.30;;;10.98;;
75716;SDS011;64333;50.138;14.332;2023-06-14T04:02:48;15.45;;;11.30;;
75716;SDS011;64333;50.138;14.332;2023-06-14T04:05:13;16.63;;;11.77;;
75716;SDS011;64333;50.138;14.332;2023-06-14T04:07:41;14.82;;;11.23;;
75716;SDS011;64333;50.138;14.332;2023-06-14T04:10:10;17.13;;;11.70;;
75716;SDS011;64333;50.138;14.332;2023-06-14T04:12:37;17.50;;;11.63;;
75716;SDS011;64333;50.138;14.332;2023-06-14T04:15:03;15.88;;;11.00;;
75716;SDS011;64333;50.138;14.332;2023-06-14T04:17:30;13.68;;;10.55;;
75716;SDS011;64333;50.138;14.332;2023-06-14T04:19:57;13.05;;;10.32;;
75716;SDS011;64333;50.138;14.332;2023-06-14T04:22:24;13.35;;;9.90;;
75716;SDS011;64333;50.138;14.332;2023-06-14T04:24:53;13.98;;;10.18;;
75716;SDS011;64333;50.138;14.332;2023-06-14T04:27:22;13.65;;;10.10;;
75716;SDS011;64333;50.138;14.332;2023-06-14T04:29:51;13.68;;;9.98;;
75716;SDS011;64333;50.138;14.332;2023-06-14T04:32:22;13.18;;;9.73;;
75716;SDS011;64333;50.138;14.332;2023-06-14T04:34:53;14.70;;;10.82;;
75716;SDS011;64333;50.138;14.332;2023-06-14T04:37:19;19.55;;;13.15;;
75716;SDS011;64333;50.138;14.332;2023-06-14T04:39:46;14.68;;;11.50;;
75716;SDS011;64333;50.138;14.332;2023-06-14T04:42:12;14.63;;;11.48;;
75716;SDS011;64333;50.138;14.332;2023-06-14T04:44:39;16.95;;;11.50;;
75716;SDS011;64333;50.138;14.332;2023-06-14T04:47:06;14.27;;;10.48;;
75716;SDS011;64333;50.138;14.332;2023-06-14T04:49:31;13.95;;;10.10;;
75716;SDS011;64333;50.138;14.332;2023-06-14T04:51:59;16.40;;;10.77;;
75716;SDS011;64333;50.138;14.332;2023-06-14T04:54:29;14.35;;;10.68;;
75716;SDS011;64333;50.138;14.332;2023-06-14T04:56:56;15.55;;;11.05;;
75716;SDS011;64333;50.138;14.332;2023-06-14T04:59:22;20.58;;;13.98;;
75716;SDS011;64333;50.138;14.332;2023-06-14T05:01:50;13.93;;;9.43;;
75716;SDS011;64333;50.138;14.332;2023-06-14T05:04:16;12.32;;;9.02;;
75716;SDS011;64333;50.138;14.332;2023-06-14T05:06:43;11.90;;;8.52;;
75716;SDS011;64333;50.138;14.332;2023-06-14T05:09:10;11.80;;;8.73;;
75716;SDS011;64333;50.138;14.332;2023-06-14T05:11:36;12.50;;;8.07;;
75716;SDS011;64333;50.138;14.332;2023-06-14T05:14:01;10.48;;;7.97;;
75716;SDS011;64333;50.138;14.332;2023-06-14T05:16:26;8.52;;;7.30;;
75716;SDS011;64333;50.138;14.332;2023-06-14T05:18:52;10.40;;;7.68;;
75716;SDS011;64333;50.138;14.332;2023-06-14T05:21:18;9.60;;;7.43;;
75716;SDS011;64333;50.138;14.332;2023-06-14T05:23:44;10.27;;;7.53;;
75716;SDS011;64333;50.138;14.332;2023-06-14T05:26:10;9.50;;;6.85;;
75716;SDS011;64333;50.138;14.332;2023-06-14T05:28:36;9.50;;;6.85;;
75716;SDS011;64333;50.138;14.332;2023-06-14T05:31:02;9.55;;;7.50;;
75716;SDS011;64333;50.138;14.332;2023-06-14T05:33:27;8.23;;;7.13;;
75716;SDS011;64333;50.138;14.332;2023-06-14T05:35:53;7.43;;;5.80;;
75716;SDS011;64333;50.138;14.332;2023-06-14T05:38:18;12.00;;;6.72;;
75716;SDS011;64333;50.138;14.332;2023-06-14T05:40:44;7.47;;;5.80;;
75716;SDS011;64333;50.138;14.332;2023-06-14T05:43:10;7.88;;;5.93;;
75716;SDS011;64333;50.138;14.332;2023-06-14T05:45:35;7.28;;;5.93;;
75716;SDS011;64333;50.138;14.332;2023-06-14T05:48:01;7.68;;;5.70;;
75716;SDS011;64333;50.138;14.332;2023-06-14T05:50:26;7.25;;;5.57;;
75716;SDS011;64333;50.138;14.332;2023-06-14T05:52:52;8.13;;;5.88;;
75716;SDS011;64333;50.138;14.332;2023-06-14T05:55:18;9.10;;;6.03;;
75716;SDS011;64333;50.138;14.332;2023-06-14T05:57:43;6.95;;;5.53;;
75716;SDS011;64333;50.138;14.332;2023-06-14T06:00:09;10.43;;;6.05;;
75716;SDS011;64333;50.138;14.332;2023-06-14T06:02:41;9.10;;;6.35;;
75716;SDS011;64333;50.138;14.332;2023-06-14T06:05:11;7.93;;;5.60;;
75716;SDS011;64333;50.138;14.332;2023-06-14T06:07:37;6.97;;;5.43;;
75716;SDS011;64333;50.138;14.332;2023-06-14T06:10:03;7.05;;;5.47;;
75716;SDS011;64333;50.138;14.332;2023-06-14T06:12:30;8.00;;;6.07;;
75716;SDS011;64333;50.138;14.332;2023-06-14T06:14:55;9.50;;;6.13;;
75716;SDS011;64333;50.138;14.332;2023-06-14T06:17:20;7.63;;;6.13;;
75716;SDS011;64333;50.138;14.332;2023-06-14T06:19:46;8.00;;;5.85;;
75716;SDS011;64333;50.138;14.332;2023-06-14T06:22:11;9.18;;;5.88;;
75716;SDS011;64333;50.138;14.332;2023-06-14T06:24:36;9.85;;;5.95;;
75716;SDS011;64333;50.138;14.332;2023-06-14T06:27:02;7.35;;;5.35;;
75716;SDS011;64333;50.138;14.332;2023-06-14T06:29:28;7.85;;;5.75;;
75716;SDS011;64333;50.138;14.332;2023-06-14T06:31:53;8.73;;;6.00;;
75716;SDS011;64333;50.138;14.332;2023-06-14T06:34:18;7.50;;;5.25;;
75716;SDS011;64333;50.138;14.332;2023-06-14T06:36:44;5.95;;;5.30;;
75716;SDS011;64333;50.138;14.332;2023-06-14T06:39:09;6.90;;;4.97;;
75716;SDS011;64333;50.138;14.332;2023-06-14T06:41:36;9.15;;;6.32;;
75716;SDS011;64333;50.138;14.332;2023-06-14T06:44:04;6.35;;;5.00;;
75716;SDS011;64333;50.138;14.332;2023-06-14T06:46:31;6.57;;;5.55;;
75716;SDS011;64333;50.138;14.332;2023-06-14T06:48:57;8.77;;;4.53;;
75716;SDS011;64333;50.138;14.332;2023-06-14T06:51:22;7.13;;;4.85;;
75716;SDS011;64333;50.138;14.332;2023-06-14T06:53:52;7.57;;;5.40;;
75716;SDS011;64333;50.138;14.332;2023-06-14T06:56:19;5.80;;;4.57;;
75716;SDS011;64333;50.138;14.332;2023-06-14T06:58:44;7.53;;;4.35;;
75716;SDS011;64333;50.138;14.332;2023-06-14T07:01:10;6.30;;;4.57;;
75716;SDS011;64333;50.138;14.332;2023-06-14T07:03:36;5.80;;;4.57;;
75716;SDS011;64333;50.138;14.332;2023-06-14T07:06:01;4.72;;;4.20;;
75716;SDS011;64333;50.138;14.332;2023-06-14T07:08:27;5.57;;;4.50;;
75716;SDS011;64333;50.138;14.332;2023-06-14T07:10:52;5.18;;;4.60;;
75716;SDS011;64333;50.138;14.332;2023-06-14T07:13:17;5.50;;;4.45;;
75716;SDS011;64333;50.138;14.332;2023-06-14T07:15:43;6.00;;;4.63;;
75716;SDS011;64333;50.138;14.332;2023-06-14T07:18:08;4.63;;;3.92;;
75716;SDS011;64333;50.138;14.332;2023-06-14T07:20:34;7.03;;;4.35;;
75716;SDS011;64333;50.138;14.332;2023-06-14T07:23:00;6.68;;;4.60;;
75716;SDS011;64333;50.138;14.332;2023-06-14T07:25:25;5.45;;;4.32;;
75716;SDS011;64333;50.138;14.332;2023-06-14T07:27:51;5.13;;;4.47;;
75716;SDS011;64333;50.138;14.332;2023-06-14T07:30:16;6.60;;;4.45;;
75716;SDS011;64333;50.138;14.332;2023-06-14T07:32:42;5.38;;;3.83;;
75716;SDS011;64333;50.138;14.332;2023-06-14T07:35:07;5.30;;;4.35;;
75716;SDS011;64333;50.138;14.332;2023-06-14T07:37:33;5.32;;;4.03;;
75716;SDS011;64333;50.138;14.332;2023-06-14T07:39:58;6.40;;;4.82;;
75716;SDS011;64333;50.138;14.332;2023-06-14T07:42:23;5.18;;;4.32;;
75716;SDS011;64333;50.138;14.332;2023-06-14T07:44:49;5.10;;;4.28;;
75716;SDS011;64333;50.138;14.332;2023-06-14T07:47:15;6.38;;;4.50;;
75716;SDS011;64333;50.138;14.332;2023-06-14T07:49:41;6.68;;;4.25;;
75716;SDS011;64333;50.138;14.332;2023-06-14T07:52:06;5.45;;;4.43;;
75716;SDS011;64333;50.138;14.332;2023-06-14T07:54:32;7.13;;;4.57;;
75716;SDS011;64333;50.138;14.332;2023-06-14T07:56:57;5.68;;;4.40;;
75716;SDS011;64333;50.138;14.332;2023-06-14T07:59:25;8.02;;;4.75;;
75716;SDS011;64333;50.138;14.332;2023-06-14T08:01:51;4.55;;;4.10;;
75716;SDS011;64333;50.138;14.332;2023-06-14T08:04:16;5.68;;;4.25;;
75716;SDS011;64333;50.138;14.332;2023-06-14T08:06:41;5.90;;;4.72;;
75716;SDS011;64333;50.138;14.332;2023-06-14T08:09:10;6.40;;;4.55;;
75716;SDS011;64333;50.138;14.332;2023-06-14T08:11:36;8.00;;;4.90;;
75716;SDS011;64333;50.138;14.332;2023-06-14T08:14:02;4.90;;;3.92;;
75716;SDS011;64333;50.138;14.332;2023-06-14T08:16:27;6.18;;;4.80;;
75716;SDS011;64333;50.138;14.332;2023-06-14T08:19:01;4.82;;;4.13;;
75716;SDS011;64333;50.138;14.332;2023-06-14T08:21:27;5.18;;;3.92;;
75716;SDS011;64333;50.138;14.332;2023-06-14T08:23:54;5.18;;;4.22;;
75716;SDS011;64333;50.138;14.332;2023-06-14T08:26:20;8.55;;;4.93;;
75716;SDS011;64333;50.138;14.332;2023-06-14T08:28:46;5.45;;;4.70;;
75716;SDS011;64333;50.138;14.332;2023-06-14T08:31:11;5.65;;;4.93;;
75716;SDS011;64333;50.138;14.332;2023-06-14T08:33:37;5.78;;;4.50;;
75716;SDS011;64333;50.138;14.332;2023-06-14T08:36:04;6.03;;;5.43;;
75716;SDS011;64333;50.138;14.332;2023-06-14T08:38:29;8.93;;;5.25;;
75716;SDS011;64333;50.138;14.332;2023-06-14T08:40:56;5.53;;;4.72;;
75716;SDS011;64333;50.138;14.332;2023-06-14T08:43:22;8.05;;;5.13;;
75716;SDS011;64333;50.138;14.332;2023-06-14T08:45:48;6.32;;;4.35;;
75716;SDS011;64333;50.138;14.332;2023-06-14T08:48:16;4.80;;;4.18;;
75716;SDS011;64333;50.138;14.332;2023-06-14T08:50:45;4.53;;;3.55;;
75716;SDS011;64333;50.138;14.332;2023-06-14T08:53:16;4.75;;;4.30;;
75716;SDS011;64333;50.138;14.332;2023-06-14T08:55:44;4.57;;;4.00;;
75716;SDS011;64333;50.138;14.332;2023-06-14T08:58:10;4.38;;;3.95;;
75716;SDS011;64333;50.138;14.332;2023-06-14T09:03:06;3.55;;;3.20;;
75716;SDS011;64333;50.138;14.332;2023-06-14T09:05:38;6.03;;;4.57;;
75716;SDS011;64333;50.138;14.332;2023-06-14T09:08:03;6.20;;;4.28;;
75716;SDS011;64333;50.138;14.332;2023-06-14T09:10:30;4.93;;;4.45;;
75716;SDS011;64333;50.138;14.332;2023-06-14T09:12:58;5.00;;;4.13;;
75716;SDS011;64333;50.138;14.332;2023-06-14T09:15:25;6.20;;;4.30;;
75716;SDS011;64333;50.138;14.332;2023-06-14T09:17:51;6.50;;;4.25;;
75716;SDS011;64333;50.138;14.332;2023-06-14T09:20:16;6.07;;;4.65;;
75716;SDS011;64333;50.138;14.332;2023-06-14T09:22:43;5.78;;;4.07;;
75716;SDS011;64333;50.138;14.332;2023-06-14T09:25:10;5.13;;;4.18;;
75716;SDS011;64333;50.138;14.332;2023-06-14T09:27:37;4.50;;;4.10;;
75716;SDS011;64333;50.138;14.332;2023-06-14T09:30:05;5.45;;;4.13;;
75716;SDS011;64333;50.138;14.332;2023-06-14T09:32:35;4.75;;;4.18;;
75716;SDS011;64333;50.138;14.332;2023-06-14T09:35:02;5.18;;;4.57;;
75716;SDS011;64333;50.138;14.332;2023-06-14T09:37:28;4.60;;;4.20;;
75716;SDS011;64333;50.138;14.332;2023-06-14T09:39:55;4.97;;;3.85;;
75716;SDS011;64333;50.138;14.332;2023-06-14T09:42:21;6.10;;;4.30;;
75716;SDS011;64333;50.138;14.332;2023-06-14T09:44:48;5.55;;;4.32;;
75716;SDS011;64333;50.138;14.332;2023-06-14T09:47:15;5.45;;;4.63;;
75716;SDS011;64333;50.138;14.332;2023-06-14T09:49:41;5.00;;;4.50;;
75716;SDS011;64333;50.138;14.332;2023-06-14T09:52:07;5.47;;;4.97;;
75716;SDS011;64333;50.138;14.332;2023-06-14T09:54:38;4.57;;;4.18;;
75716;SDS011;64333;50.138;14.332;2023-06-14T09:57:19;6.00;;;4.43;;
75716;SDS011;64333;50.138;14.332;2023-06-14T09:59:46;7.93;;;4.10;;
75716;SDS011;64333;50.138;14.332;2023-06-14T10:02:24;4.15;;;3.78;;
75716;SDS011;64333;50.138;14.332;2023-06-14T10:04:54;6.30;;;4.90;;
75716;SDS011;64333;50.138;14.332;2023-06-14T10:07:30;6.32;;;4.32;;
75716;SDS011;64333;50.138;14.332;2023-06-14T10:10:01;4.38;;;4.00;;
75716;SDS011;64333;50.138;14.332;2023-06-14T10:12:27;3.80;;;3.22;;
75716;SDS011;64333;50.138;14.332;2023-06-14T10:14:53;4.90;;;3.63;;
75716;SDS011;64333;50.138;14.332;2023-06-14T10:17:25;6.70;;;3.45;;
75716;SDS011;64333;50.138;14.332;2023-06-14T10:23:06;4.20;;;3.38;;
75716;SDS011;64333;50.138;14.332;2023-06-14T10:25:35;4.00;;;3.70;;
75716;SDS011;64333;50.138;14.332;2023-06-14T10:30:38;3.72;;;3.38;;
75716;SDS011;64333;50.138;14.332;2023-06-14T10:33:04;5.50;;;3.35;;
75716;SDS011;64333;50.138;14.332;2023-06-14T10:35:33;4.95;;;3.80;;
75716;SDS011;64333;50.138;14.332;2023-06-14T10:38:11;4.07;;;3.50;;
75716;SDS011;64333;50.138;14.332;2023-06-14T10:40:37;3.83;;;3.38;;
75716;SDS011;64333;50.138;14.332;2023-06-14T10:43:22;3.90;;;3.50;;
75716;SDS011;64333;50.138;14.332;2023-06-14T10:46:31;3.50;;;3.08;;
75716;SDS011;64333;50.138;14.332;2023-06-14T10:48:42;3.13;;;2.90;;
75716;SDS011;64333;50.138;14.332;2023-06-14T10:51:19;3.92;;;3.22;;
75716;SDS011;64333;50.138;14.332;2023-06-14T10:53:46;3.60;;;3.15;;
75716;SDS011;64333;50.138;14.332;2023-06-14T10:56:23;3.53;;;3.22;;
75716;SDS011;64333;50.138;14.332;2023-06-14T10:58:53;3.42;;;3.15;;
75716;SDS011;64333;50.138;14.332;2023-06-14T11:01:19;2.97;;;2.60;;
75716;SDS011;64333;50.138;14.332;2023-06-14T11:03:56;3.67;;;3.38;;
75716;SDS011;64333;50.138;14.332;2023-06-14T11:06:33;3.40;;;3.10;;
75716;SDS011;64333;50.138;14.332;2023-06-14T11:11:45;4.28;;;3.35;;
75716;SDS011;64333;50.138;14.332;2023-06-14T11:14:11;3.40;;;3.10;;
75716;SDS011;64333;50.138;14.332;2023-06-14T11:16:36;4.07;;;3.70;;
75716;SDS011;64333;50.138;14.332;2023-06-14T11:19:02;3.60;;;3.30;;
75716;SDS011;64333;50.138;14.332;2023-06-14T11:21:33;3.67;;;3.38;;
75716;SDS011;64333;50.138;14.332;2023-06-14T11:23:59;4.20;;;3.80;;
75716;SDS011;64333;50.138;14.332;2023-06-14T11:26:33;5.18;;;4.35;;
75716;SDS011;64333;50.138;14.332;2023-06-14T11:29:00;4.35;;;3.83;;
75716;SDS011;64333;50.138;14.332;2023-06-14T11:31:26;4.10;;;3.80;;
75716;SDS011;64333;50.138;14.332;2023-06-14T11:33:53;4.50;;;4.10;;
75716;SDS011;64333;50.138;14.332;2023-06-14T11:36:23;4.55;;;4.10;;
75716;SDS011;64333;50.138;14.332;2023-06-14T11:41:24;5.20;;;4.70;;
75716;SDS011;64333;50.138;14.332;2023-06-14T11:43:52;4.03;;;3.70;;
75716;SDS011;64333;50.138;14.332;2023-06-14T11:46:18;4.43;;;4.03;;
75716;SDS011;64333;50.138;14.332;2023-06-14T11:48:48;5.00;;;3.47;;
75716;SDS011;64333;50.138;14.332;2023-06-14T11:51:14;3.50;;;3.20;;
75716;SDS011;64333;50.138;14.332;2023-06-14T11:53:40;5.22;;;3.28;;
75716;SDS011;64333;50.138;14.332;2023-06-14T11:56:08;3.67;;;2.80;;
75716;SDS011;64333;50.138;14.332;2023-06-14T11:58:33;3.80;;;3.50;;
75716;SDS011;64333;50.138;14.332;2023-06-14T12:00:59;3.33;;;2.83;;
75716;SDS011;64333;50.138;14.332;2023-06-14T12:03:25;3.83;;;3.22;;
75716;SDS011;64333;50.138;14.332;2023-06-14T12:06:02;2.90;;;2.60;;
75716;SDS011;64333;50.138;14.332;2023-06-14T12:08:38;3.63;;;3.25;;
75716;SDS011;64333;50.138;14.332;2023-06-14T12:11:05;3.40;;;3.03;;
75716;SDS011;64333;50.138;14.332;2023-06-14T12:13:33;3.75;;;3.08;;
75716;SDS011;64333;50.138;14.332;2023-06-14T12:15:59;3.08;;;2.78;;
75716;SDS011;64333;50.138;14.332;2023-06-14T12:18:31;3.25;;;2.95;;
75716;SDS011;64333;50.138;14.332;2023-06-14T12:21:01;3.00;;;2.80;;
75716;SDS011;64333;50.138;14.332;2023-06-14T12:23:38;4.68;;;3.22;;
75716;SDS011;64333;50.138;14.332;2023-06-14T12:26:14;3.45;;;2.75;;
75716;SDS011;64333;50.138;14.332;2023-06-14T12:28:44;4.55;;;3.35;;
75716;SDS011;64333;50.138;14.332;2023-06-14T12:31:11;3.85;;;3.50;;
75716;SDS011;64333;50.138;14.332;2023-06-14T12:33:37;4.30;;;3.30;;
75716;SDS011;64333;50.138;14.332;2023-06-14T12:36:07;5.30;;;3.38;;
75716;SDS011;64333;50.138;14.332;2023-06-14T12:38:33;3.47;;;3.17;;
75716;SDS011;64333;50.138;14.332;2023-06-14T12:40:59;4.15;;;3.72;;
75716;SDS011;64333;50.138;14.332;2023-06-14T12:43:25;4.47;;;3.22;;
75716;SDS011;64333;50.138;14.332;2023-06-14T12:45:50;3.70;;;3.15;;
75716;SDS011;64333;50.138;14.332;2023-06-14T12:48:16;3.95;;;3.65;;
75716;SDS011;64333;50.138;14.332;2023-06-14T12:50:41;3.65;;;3.35;;
75716;SDS011;64333;50.138;14.332;2023-06-14T12:53:07;5.07;;;4.00;;
75716;SDS011;64333;50.138;14.332;2023-06-14T12:55:32;4.05;;;3.65;;
75716;SDS011;64333;50.138;14.332;2023-06-14T12:57:58;4.05;;;3.70;;
75716;SDS011;64333;50.138;14.332;2023-06-14T13:00:23;3.80;;;3.50;;
75716;SDS011;64333;50.138;14.332;2023-06-14T13:02:50;3.92;;;3.53;;
75716;SDS011;64333;50.138;14.332;2023-06-14T13:05:16;4.03;;;3.63;;
75716;SDS011;64333;50.138;14.332;2023-06-14T13:07:42;4.88;;;3.30;;
75716;SDS011;64333;50.138;14.332;2023-06-14T13:10:08;4.50;;;3.08;;
75716;SDS011;64333;50.138;14.332;2023-06-14T13:12:33;3.10;;;2.90;;
75716;SDS011;64333;50.138;14.332;2023-06-14T13:14:59;3.20;;;2.90;;
75716;SDS011;64333;50.138;14.332;2023-06-14T13:17:24;3.35;;;3.05;;
75716;SDS011;64333;50.138;14.332;2023-06-14T13:19:49;2.90;;;2.70;;
75716;SDS011;64333;50.138;14.332;2023-06-14T13:22:15;4.60;;;2.83;;
75716;SDS011;64333;50.138;14.332;2023-06-14T13:24:40;3.13;;;2.83;;
75716;SDS011;64333;50.138;14.332;2023-06-14T13:27:06;2.83;;;2.63;;
75716;SDS011;64333;50.138;14.332;2023-06-14T13:29:31;3.30;;;2.90;;
75716;SDS011;64333;50.138;14.332;2023-06-14T13:31:58;2.72;;;2.53;;
75716;SDS011;64333;50.138;14.332;2023-06-14T13:34:23;3.30;;;3.00;;
75716;SDS011;64333;50.138;14.332;2023-06-14T13:36:49;4.80;;;2.63;;
75716;SDS011;64333;50.138;14.332;2023-06-14T13:39:15;3.88;;;2.95;;
75716;SDS011;64333;50.138;14.332;2023-06-14T13:41:41;5.07;;;2.65;;
75716;SDS011;64333;50.138;14.332;2023-06-14T13:44:06;4.60;;;3.03;;
75716;SDS011;64333;50.138;14.332;2023-06-14T13:46:31;4.03;;;3.22;;
75716;SDS011;64333;50.138;14.332;2023-06-14T13:48:57;5.82;;;3.35;;
75716;SDS011;64333;50.138;14.332;2023-06-14T13:51:23;3.70;;;3.33;;
75716;SDS011;64333;50.138;14.332;2023-06-14T13:53:49;7.28;;;3.38;;
75716;SDS011;64333;50.138;14.332;2023-06-14T13:56:15;3.55;;;3.25;;
75716;SDS011;64333;50.138;14.332;2023-06-14T13:58:41;3.42;;;3.13;;
75716;SDS011;64333;50.138;14.332;2023-06-14T14:01:07;3.30;;;3.00;;
75716;SDS011;64333;50.138;14.332;2023-06-14T14:03:33;4.65;;;3.47;;
75716;SDS011;64333;50.138;14.332;2023-06-14T14:06:00;4.03;;;3.25;;
75716;SDS011;64333;50.138;14.332;2023-06-14T14:08:28;4.15;;;2.88;;
75716;SDS011;64333;50.138;14.332;2023-06-14T14:10:54;3.28;;;2.95;;
75716;SDS011;64333;50.138;14.332;2023-06-14T14:13:21;3.78;;;3.00;;
75716;SDS011;64333;50.138;14.332;2023-06-14T14:15:46;4.22;;;3.25;;
75716;SDS011;64333;50.138;14.332;2023-06-14T14:18:12;5.53;;;3.28;;
75716;SDS011;64333;50.138;14.332;2023-06-14T14:20:37;6.45;;;5.20;;
75716;SDS011;64333;50.138;14.332;2023-06-14T14:23:03;4.43;;;3.42;;
75716;SDS011;64333;50.138;14.332;2023-06-14T14:25:28;5.50;;;3.25;;
75716;SDS011;64333;50.138;14.332;2023-06-14T14:27:54;5.07;;;3.30;;
75716;SDS011;64333;50.138;14.332;2023-06-14T14:30:19;4.50;;;3.22;;
75716;SDS011;64333;50.138;14.332;2023-06-14T14:32:48;4.07;;;2.90;;
75716;SDS011;64333;50.138;14.332;2023-06-14T14:35:14;6.80;;;3.30;;
75716;SDS011;64333;50.138;14.332;2023-06-14T14:37:40;4.38;;;2.90;;
75716;SDS011;64333;50.138;14.332;2023-06-14T14:40:06;5.05;;;3.35;;
75716;SDS011;64333;50.138;14.332;2023-06-14T14:42:32;3.92;;;3.10;;
75716;SDS011;64333;50.138;14.332;2023-06-14T14:44:57;3.95;;;2.92;;